Winnemucca, Nevada
Current Conditions -  °F | °C
As of 9:56 AM on Friday 21 Nov 2014 (Local Time) from KWMC Reporting Station
Clear Clear  
Wind Chill: 42°   Ceiling: Unl
Heat Index: 42°   Visibility: 10mi
Dew Point: 32°   Wind: 3mph
Humidity: 67%   Direction: 300°WNW
Pressure: 30.05"   Gusts: NA
Location:  40.97°N, 117.73°W
Report Text: KWMC 211756Z AUTO 30003KT 10SM CLR 06/00 A3005 RMK AO2 RAB39E54 SLP178 P0000 60000 I6000 T00560000 10056 21067 50001
Loading
Personal Weather Stations






























Interactive Weather Map New forecast layout! Learn more

10-Day Weather Forecast

Advertisements
Track Severe Weather on mobile